Time;durP1;ratioP1;P1;durP2;ratioP2;P2;SDS_P1;SDS_P2;PMS_P1;PMS_P2;Temp;Humidity;BMP_temperature;BMP_pressure;BME280_temperature;BME280_humidity;BME280_pressure;Samples;Min_cycle;Max_cycle;Signal;HPM_P1;HPM_P2
2022/11/28 00:01:06;;;;;;;20.30;11.10;;;5.10;99.90;;;;;;5028059;28;20216;-72
2022/11/28 00:03:32;;;;;;;24.87;11.97;;;5.10;99.90;;;;;;5027402;28;20254;-72
2022/11/28 00:06:06;;;;;;;23.00;11.93;;;5.20;99.90;;;;;;5029029;28;20238;-72
2022/11/28 00:08:32;;;;;;;21.30;11.37;;;5.20;99.90;;;;;;5029990;28;20239;-71
2022/11/28 00:11:01;;;;;;;17.47;11.00;;;5.20;99.90;;;;;;5024287;28;20211;-71
2022/11/28 00:13:27;;;;;;;23.87;11.63;;;5.20;99.90;;;;;;5028813;28;20212;-71
2022/11/28 00:15:57;;;;;;;20.50;11.60;;;5.10;99.90;;;;;;5021463;28;20218;-71
2022/11/28 00:18:22;;;;;;;20.20;11.80;;;5.10;99.90;;;;;;5027212;28;20257;-72
2022/11/28 00:20:48;;;;;;;22.13;11.40;;;5.10;99.90;;;;;;5026515;28;20646;-72
2022/11/28 00:23:13;;;;;;;21.87;11.70;;;5.10;99.90;;;;;;5020849;28;20300;-73
2022/11/28 00:25:39;;;;;;;16.87;11.43;;;5.10;99.90;;;;;;5030348;28;20222;-70
2022/11/28 00:28:05;;;;;;;17.50;10.53;;;5.10;99.90;;;;;;5027512;28;20211;-71
2022/11/28 00:30:30;;;;;;;20.40;11.63;;;5.10;99.90;;;;;;5026898;28;20227;-71
2022/11/28 00:32:56;;;;;;;22.93;11.77;;;5.00;99.90;;;;;;5026321;28;20178;-71
2022/11/28 00:35:21;;;;;;;23.60;11.50;;;5.00;99.90;;;;;;5026860;28;20215;-71
2022/11/28 00:37:47;;;;;;;17.97;11.10;;;5.00;99.90;;;;;;5026467;28;20218;-72
2022/11/28 00:40:13;;;;;;;18.90;11.50;;;5.00;99.90;;;;;;5032194;28;20718;-72
2022/11/28 00:42:38;;;;;;;21.27;12.43;;;5.00;99.90;;;;;;5029181;28;20710;-69
2022/11/28 00:45:04;;;;;;;21.77;12.50;;;5.00;99.90;;;;;;5028358;28;20203;-71
2022/11/28 00:47:30;;;;;;;23.00;12.07;;;4.90;99.90;;;;;;5033038;28;20709;-71
2022/11/28 00:49:55;;;;;;;24.03;12.33;;;4.90;99.90;;;;;;5026929;28;20214;-71
2022/11/28 00:52:21;;;;;;;21.67;12.50;;;4.90;99.90;;;;;;5028049;28;20204;-71
2022/11/28 00:57:25;;;;;;;24.63;13.20;;;4.90;99.90;;;;;;5044473;28;20240;-70
2022/11/28 00:59:50;;;;;;;25.53;13.20;;;4.90;99.90;;;;;;5057013;28;20176;-73
2022/11/28 01:02:17;;;;;;;21.80;12.20;;;4.80;99.90;;;;;;5046989;28;20226;-71
2022/11/28 01:04:44;;;;;;;19.67;12.30;;;4.90;99.90;;;;;;5051295;28;20656;-73
2022/11/28 01:07:09;;;;;;;24.20;13.53;;;4.90;99.90;;;;;;5046722;28;20219;-73
2022/11/28 01:09:35;;;;;;;22.10;12.40;;;4.90;99.90;;;;;;5050321;28;20264;-73
2022/11/28 01:12:01;;;;;;;23.73;12.17;;;4.80;99.90;;;;;;5051070;28;20249;-75
2022/11/28 01:14:26;;;;;;;21.77;12.53;;;4.80;99.90;;;;;;5050373;28;20280;-72
2022/11/28 01:16:52;;;;;;;22.00;12.17;;;4.90;99.90;;;;;;5050322;28;20591;-77
2022/11/28 01:19:18;;;;;;;24.07;13.17;;;4.80;99.90;;;;;;5049734;28;20245;-75
2022/11/28 01:21:44;;;;;;;24.67;13.30;;;4.80;99.90;;;;;;5050454;28;20705;-72
2022/11/28 01:24:13;;;;;;;23.53;12.97;;;4.80;99.90;;;;;;5050105;28;20198;-72
2022/11/28 01:26:39;;;;;;;24.67;13.87;;;4.80;99.90;;;;;;5050786;28;20201;-72
2022/11/28 01:29:06;;;;;;;25.73;13.83;;;4.70;99.90;;;;;;5048315;28;20232;-72
2022/11/28 01:31:32;;;;;;;23.43;13.73;;;4.70;99.90;;;;;;5049933;28;20211;-72
2022/11/28 01:33:58;;;;;;;21.23;12.77;;;4.80;99.90;;;;;;5050061;28;20232;-72
2022/11/28 01:36:24;;;;;;;21.60;12.33;;;4.80;99.90;;;;;;5050378;28;20202;-71
2022/11/28 01:38:50;;;;;;;22.60;13.60;;;4.80;99.90;;;;;;5050775;28;20320;-72
2022/11/28 01:41:19;;;;;;;23.37;12.97;;;4.70;99.90;;;;;;5049773;28;20210;-71
2022/11/28 01:44:12;;;;;;;24.23;14.63;;;4.70;99.90;;;;;;5050388;28;20726;-71
2022/11/28 01:46:38;;;;;;;23.43;13.87;;;4.70;99.90;;;;;;5048861;28;20222;-71
2022/11/28 01:49:19;;;;;;;26.87;14.60;;;4.70;99.90;;;;;;5049833;28;20364;-72
2022/11/28 01:51:47;;;;;;;26.73;14.23;;;4.70;99.90;;;;;;5050161;28;20691;-72
2022/11/28 01:54:15;;;;;;;22.90;13.17;;;4.60;99.90;;;;;;5049365;28;20222;-71
2022/11/28 01:56:46;;;;;;;24.10;13.80;;;4.60;99.90;;;;;;5050366;28;20225;-71
2022/11/28 01:59:14;;;;;;;25.47;14.80;;;4.60;99.90;;;;;;5051217;28;20339;-72
2022/11/28 02:01:42;;;;;;;24.40;14.10;;;4.60;99.90;;;;;;5052683;28;20214;-71
2022/11/28 02:04:08;;;;;;;23.80;14.43;;;4.70;99.90;;;;;;5057546;28;20229;-71
2022/11/28 02:06:35;;;;;;;24.10;14.07;;;4.60;99.90;;;;;;5056849;28;20225;-72
2022/11/28 02:09:01;;;;;;;22.43;13.17;;;4.50;99.90;;;;;;5057922;28;20194;-72
2022/11/28 02:11:48;;;;;;;21.27;12.90;;;4.50;99.90;;;;;;5052376;28;20217;-72
2022/11/28 02:14:22;;;;;;;23.63;13.70;;;4.50;99.90;;;;;;5056258;28;20744;-72
2022/11/28 02:17:10;;;;;;;25.30;14.20;;;4.50;99.90;;;;;;5056301;28;20218;-71
2022/11/28 02:19:54;;;;;;;25.67;13.93;;;4.50;99.90;;;;;;5053012;28;20305;-70
2022/11/28 02:22:36;;;;;;;26.03;13.90;;;4.50;99.90;;;;;;5056945;28;20213;-71
2022/11/28 02:25:13;;;;;;;22.00;13.43;;;4.50;99.90;;;;;;5053996;28;20990;-72
2022/11/28 02:28:11;;;;;;;19.03;13.13;;;4.50;99.90;;;;;;5056401;28;20592;-71
2022/11/28 02:30:43;;;;;;;20.97;13.57;;;4.40;99.90;;;;;;5024991;28;20213;-71
2022/11/28 02:33:11;;;;;;;22.80;12.60;;;4.50;99.90;;;;;;5056138;28;20205;-71
2022/11/28 02:35:49;;;;;;;21.10;12.47;;;4.40;99.90;;;;;;5056661;28;20202;-72
2022/11/28 02:38:35;;;;;;;21.97;13.70;;;4.40;99.90;;;;;;5052420;28;20224;-70
2022/11/28 02:41:32;;;;;;;21.77;12.63;;;4.40;99.90;;;;;;5068306;28;20216;-72
2022/11/28 02:44:12;;;;;;;22.20;13.03;;;4.40;99.90;;;;;;5055386;28;20729;-71
2022/11/28 02:46:44;;;;;;;24.20;13.50;;;4.50;99.90;;;;;;5056417;28;20703;-71
2022/11/28 02:49:15;;;;;;;18.77;12.20;;;4.30;99.90;;;;;;5054847;28;20211;-71
2022/11/28 02:51:47;;;;;;;25.20;12.97;;;4.30;99.90;;;;;;5054780;28;20583;-71
2022/11/28 02:54:16;;;;;;;21.10;12.67;;;4.30;99.90;;;;;;5056275;28;20191;-72
2022/11/28 02:56:50;;;;;;;23.53;13.43;;;4.30;99.90;;;;;;5055198;28;20226;-71
2022/11/28 02:59:37;;;;;;;21.67;12.73;;;4.40;99.90;;;;;;5054356;28;20210;-70
2022/11/28 03:02:14;;;;;;;24.57;13.17;;;4.40;99.90;;;;;;5054752;28;20727;-71
2022/11/28 03:05:01;;;;;;;20.83;12.07;;;4.30;99.90;;;;;;5053550;28;20374;-72
2022/11/28 03:07:45;;;;;;;19.13;12.43;;;4.40;99.90;;;;;;5053572;28;20720;-71
2022/11/28 03:10:48;;;;;;;20.20;12.27;;;4.30;99.90;;;;;;5054078;28;20592;-71
2022/11/28 03:13:25;;;;;;;19.57;12.20;;;4.30;99.90;;;;;;5046370;28;20208;-71
2022/11/28 03:16:09;;;;;;;20.03;11.90;;;4.40;99.90;;;;;;5050661;28;20225;-71
2022/11/28 03:18:50;;;;;;;21.03;12.17;;;4.30;99.90;;;;;;5050027;28;20216;-71
2022/11/28 03:21:39;;;;;;;21.57;13.03;;;4.30;99.90;;;;;;5051825;28;20187;-71
2022/11/28 03:24:24;;;;;;;22.50;12.47;;;4.30;99.90;;;;;;5050960;28;20217;-70
2022/11/28 03:27:09;;;;;;;23.10;13.43;;;4.30;99.90;;;;;;5052515;28;20769;-70
2022/11/28 03:29:42;;;;;;;20.53;12.20;;;4.30;99.90;;;;;;5051651;28;20207;-70
2022/11/28 03:32:22;;;;;;;23.10;13.37;;;4.30;99.90;;;;;;5051907;28;20205;-71
2022/11/28 03:34:54;;;;;;;21.87;12.93;;;4.30;99.90;;;;;;5048479;28;20232;-71
2022/11/28 03:37:42;;;;;;;21.73;12.20;;;4.30;99.90;;;;;;5049143;28;20211;-70
2022/11/28 03:40:12;;;;;;;21.13;12.53;;;4.30;99.90;;;;;;5040788;28;20211;-71
2022/11/28 03:42:45;;;;;;;22.60;12.50;;;4.40;99.90;;;;;;5052485;28;20237;-71
2022/11/28 03:45:23;;;;;;;19.40;11.73;;;4.30;99.90;;;;;;5051746;28;20250;-71
2022/11/28 03:48:07;;;;;;;24.83;13.43;;;4.30;99.90;;;;;;5048389;28;20193;-70
2022/11/28 03:50:40;;;;;;;23.70;13.17;;;4.30;99.90;;;;;;5051384;28;20214;-71
2022/11/28 03:53:12;;;;;;;21.33;12.47;;;4.30;99.90;;;;;;5051642;28;20238;-70
2022/11/28 03:55:48;;;;;;;23.23;12.77;;;4.30;99.90;;;;;;5050445;28;20301;-70
2022/11/28 03:58:26;;;;;;;19.60;12.10;;;4.30;99.90;;;;;;5050412;28;20223;-71
2022/11/28 04:01:24;;;;;;;21.77;11.60;;;4.30;99.90;;;;;;5042903;28;20207;-72
2022/11/28 04:03:52;;;;;;;22.87;13.30;;;4.30;99.90;;;;;;5045242;28;20723;-72
2022/11/28 04:06:32;;;;;;;20.50;12.37;;;4.30;99.90;;;;;;5050492;28;20206;-71
2022/11/28 04:09:10;;;;;;;22.13;13.20;;;4.30;99.90;;;;;;5049874;28;20173;-71
2022/11/28 04:11:48;;;;;;;19.40;12.03;;;4.30;99.90;;;;;;5048535;28;20217;-72
2022/11/28 04:14:28;;;;;;;24.67;13.57;;;4.30;99.90;;;;;;5050035;28;20263;-71
2022/11/28 04:17:16;;;;;;;21.63;12.13;;;4.20;99.90;;;;;;5047683;28;20207;-71
2022/11/28 04:19:42;;;;;;;22.20;13.00;;;4.20;99.90;;;;;;5045055;28;20203;-72
2022/11/28 04:22:26;;;;;;;25.37;13.40;;;4.10;99.90;;;;;;5050817;28;20583;-70
2022/11/28 04:25:08;;;;;;;24.77;12.57;;;4.20;99.90;;;;;;5049813;28;20249;-71
2022/11/28 04:27:41;;;;;;;21.30;11.63;;;4.20;99.90;;;;;;5047714;28;20232;-70
2022/11/28 04:30:09;;;;;;;22.63;11.83;;;4.20;99.90;;;;;;5051170;28;20169;-70
2022/11/28 04:32:40;;;;;;;22.57;12.17;;;4.20;99.90;;;;;;5051408;28;20214;-70
2022/11/28 04:35:11;;;;;;;27.10;14.00;;;4.20;99.90;;;;;;5051141;28;20355;-70
2022/11/28 04:37:39;;;;;;;21.57;13.37;;;4.20;99.90;;;;;;5047086;28;20262;-70
2022/11/28 04:40:10;;;;;;;22.87;13.43;;;4.20;99.90;;;;;;5049201;28;20332;-70
2022/11/28 04:42:44;;;;;;;21.53;13.47;;;4.20;99.90;;;;;;5050789;28;20221;-71
2022/11/28 04:45:25;;;;;;;25.07;13.40;;;4.30;99.90;;;;;;5049537;28;20206;-70
2022/11/28 04:47:51;;;;;;;24.70;12.87;;;4.20;99.90;;;;;;5050676;28;20199;-71
2022/11/28 04:50:17;;;;;;;26.43;13.70;;;4.20;99.90;;;;;;5048972;28;20212;-71
2022/11/28 04:52:51;;;;;;;24.00;12.83;;;4.20;99.90;;;;;;5050604;28;20205;-71
2022/11/28 04:55:44;;;;;;;27.60;13.20;;;4.20;99.90;;;;;;5050311;28;20204;-70
2022/11/28 04:58:36;;;;;;;22.87;12.80;;;4.20;99.90;;;;;;5048084;28;20207;-71
2022/11/28 05:01:06;;;;;;;22.53;12.30;;;4.20;99.90;;;;;;5042817;28;20299;-70
2022/11/28 05:03:32;;;;;;;24.33;13.50;;;4.20;99.90;;;;;;5050246;28;20240;-71
2022/11/28 05:05:58;;;;;;;22.83;12.87;;;4.20;99.90;;;;;;5050667;28;20240;-71
2022/11/28 05:08:24;;;;;;;25.37;12.90;;;4.20;99.90;;;;;;5049644;28;20643;-71
2022/11/28 05:10:50;;;;;;;22.77;13.07;;;4.20;99.90;;;;;;5049006;28;20220;-71
2022/11/28 05:13:15;;;;;;;25.13;12.80;;;4.20;99.90;;;;;;5048522;28;20205;-71
2022/11/28 05:15:41;;;;;;;22.23;12.93;;;4.20;99.90;;;;;;5050398;28;20268;-71
2022/11/28 05:18:07;;;;;;;22.67;12.83;;;4.20;99.90;;;;;;5058896;28;20600;-71
2022/11/28 05:20:33;;;;;;;28.47;13.73;;;4.20;99.90;;;;;;5048905;28;20252;-70
2022/11/28 05:22:59;;;;;;;22.90;12.77;;;4.30;99.90;;;;;;5050515;28;20206;-71
2022/11/28 05:25:24;;;;;;;21.07;11.90;;;4.30;99.90;;;;;;5048817;28;20233;-71
2022/11/28 05:27:50;;;;;;;23.50;13.37;;;4.30;99.90;;;;;;5050065;28;20239;-70
2022/11/28 05:30:16;;;;;;;23.80;12.90;;;4.20;99.90;;;;;;5049591;28;20271;-72
2022/11/28 05:32:41;;;;;;;22.07;11.63;;;4.30;99.90;;;;;;5050523;28;20540;-71
2022/11/28 05:35:07;;;;;;;26.00;13.17;;;4.20;99.90;;;;;;5048293;28;20205;-72
2022/11/28 05:37:33;;;;;;;24.60;12.83;;;4.30;99.90;;;;;;5045632;28;20206;-72
2022/11/28 05:39:58;;;;;;;21.40;12.53;;;4.30;99.90;;;;;;5048335;28;20749;-73
2022/11/28 05:42:29;;;;;;;20.97;12.13;;;4.30;99.90;;;;;;5048679;28;20711;-73
2022/11/28 05:44:55;;;;;;;23.97;12.07;;;4.30;99.90;;;;;;5050423;28;20285;-72
2022/11/28 05:47:22;;;;;;;21.83;12.17;;;4.30;99.90;;;;;;5048645;28;20296;-72
2022/11/28 05:49:48;;;;;;;21.17;11.23;;;4.30;99.90;;;;;;5046299;28;20304;-72
2022/11/28 05:52:13;;;;;;;25.93;13.13;;;4.30;99.90;;;;;;5049677;28;20206;-72
2022/11/28 05:54:39;;;;;;;23.57;12.80;;;4.40;99.90;;;;;;5048429;28;20204;-72
2022/11/28 05:57:06;;;;;;;21.40;11.67;;;4.30;99.90;;;;;;5050111;28;20711;-72
2022/11/28 05:59:31;;;;;;;25.07;12.57;;;4.40;99.90;;;;;;5049654;28;20214;-72
2022/11/28 06:01:57;;;;;;;21.93;11.90;;;4.30;99.90;;;;;;5049627;28;20203;-73
2022/11/28 06:04:23;;;;;;;20.77;12.20;;;4.30;99.90;;;;;;5049864;28;20302;-72
2022/11/28 06:06:49;;;;;;;22.00;11.87;;;4.40;99.90;;;;;;5050127;28;20215;-72
2022/11/28 06:09:15;;;;;;;23.83;13.23;;;4.40;99.90;;;;;;5049277;28;20198;-73
2022/11/28 06:11:40;;;;;;;24.03;12.87;;;4.30;99.90;;;;;;5050735;28;20185;-72
2022/11/28 06:14:06;;;;;;;20.40;12.03;;;4.30;99.90;;;;;;5049782;28;20214;-72
2022/11/28 06:16:32;;;;;;;19.43;12.53;;;4.30;99.90;;;;;;5049941;28;20204;-72
2022/11/28 06:19:00;;;;;;;24.50;13.30;;;4.30;99.90;;;;;;5049709;28;20766;-72
2022/11/28 06:21:27;;;;;;;21.33;12.63;;;4.30;99.90;;;;;;5046144;28;20657;-72
2022/11/28 06:23:53;;;;;;;22.40;12.97;;;4.30;99.90;;;;;;5049867;28;20265;-71
2022/11/28 06:26:22;;;;;;;22.93;13.33;;;4.30;99.90;;;;;;5048932;28;20603;-72
2022/11/28 06:28:49;;;;;;;26.30;13.23;;;4.40;99.90;;;;;;5049717;28;20569;-72
2022/11/28 06:31:17;;;;;;;18.63;12.23;;;4.30;99.90;;;;;;5049464;28;20767;-73
2022/11/28 06:33:43;;;;;;;27.53;14.33;;;4.30;99.90;;;;;;5050021;28;20205;-72
2022/11/28 06:36:10;;;;;;;23.87;14.13;;;4.30;99.90;;;;;;5049729;28;20198;-72
2022/11/28 06:38:36;;;;;;;29.60;15.10;;;4.30;99.90;;;;;;5049794;28;20262;-72
2022/11/28 06:41:05;;;;;;;24.00;13.37;;;4.20;99.90;;;;;;5049548;28;20679;-72
2022/11/28 06:43:31;;;;;;;27.43;13.97;;;4.20;99.90;;;;;;5049690;28;20221;-72
2022/11/28 06:45:56;;;;;;;24.20;13.80;;;4.20;99.90;;;;;;5051064;28;20252;-72
2022/11/28 06:48:23;;;;;;;23.83;13.80;;;4.20;99.90;;;;;;5053441;28;20214;-71
2022/11/28 06:50:49;;;;;;;24.67;14.60;;;4.20;99.90;;;;;;5053710;28;20186;-72
2022/11/28 06:53:15;;;;;;;28.43;13.60;;;4.20;99.90;;;;;;5053372;28;20235;-71
2022/11/28 06:55:41;;;;;;;30.73;15.43;;;4.10;99.90;;;;;;5053128;28;20221;-72
2022/11/28 06:58:07;;;;;;;28.03;14.83;;;4.10;99.90;;;;;;5053095;28;20215;-72
2022/11/28 07:00:32;;;;;;;32.20;15.47;;;4.10;99.90;;;;;;5051861;28;20715;-72
2022/11/28 07:02:58;;;;;;;31.87;15.80;;;4.10;99.90;;;;;;5053441;28;20253;-72
2022/11/28 07:05:27;;;;;;;37.73;18.63;;;4.10;99.90;;;;;;5052818;28;20214;-72
2022/11/28 07:07:59;;;;;;;30.13;16.33;;;4.10;99.90;;;;;;5052864;28;20675;-72
2022/11/28 07:10:26;;;;;;;32.07;17.63;;;4.00;99.90;;;;;;5052826;28;20209;-72
2022/11/28 07:12:54;;;;;;;31.67;16.90;;;4.10;99.90;;;;;;5052865;28;20213;-72
2022/11/28 07:15:20;;;;;;;29.10;16.50;;;4.10;99.90;;;;;;5052112;28;20193;-72
2022/11/28 07:17:45;;;;;;;28.27;15.37;;;4.10;99.90;;;;;;5051943;28;20708;-72
2022/11/28 07:20:11;;;;;;;34.47;17.17;;;4.00;99.90;;;;;;5052245;28;20230;-72
2022/11/28 07:22:38;;;;;;;26.73;14.43;;;4.00;99.90;;;;;;5053018;28;20214;-72
2022/11/28 07:25:04;;;;;;;33.63;16.27;;;4.00;99.90;;;;;;5052690;28;20217;-72
2022/11/28 07:27:29;;;;;;;26.40;15.50;;;4.00;99.90;;;;;;5054342;28;20582;-70
2022/11/28 07:29:55;;;;;;;29.20;15.77;;;4.10;99.90;;;;;;5052702;28;20175;-69
2022/11/28 07:32:20;;;;;;;29.90;16.63;;;4.10;99.90;;;;;;5052514;28;20229;-69
2022/11/28 07:34:46;;;;;;;25.33;14.70;;;4.10;99.90;;;;;;5052209;28;20215;-69
2022/11/28 07:37:12;;;;;;;31.37;15.17;;;4.10;99.90;;;;;;5052069;28;20225;-69
2022/11/28 07:39:37;;;;;;;29.07;16.47;;;4.10;99.90;;;;;;5051862;28;20741;-69
2022/11/28 07:42:03;;;;;;;29.30;15.67;;;4.20;99.90;;;;;;5052835;28;20186;-70
2022/11/28 07:44:29;;;;;;;30.60;16.07;;;4.20;99.90;;;;;;5052234;28;20222;-69
2022/11/28 07:46:54;;;;;;;30.37;14.97;;;4.20;99.90;;;;;;5050233;28;20589;-69
2022/11/28 07:49:20;;;;;;;26.87;14.37;;;4.30;99.90;;;;;;5051873;28;20215;-69
2022/11/28 07:51:46;;;;;;;28.20;16.37;;;4.20;99.90;;;;;;5052286;28;20210;-69
2022/11/28 07:54:11;;;;;;;29.30;15.77;;;4.20;99.90;;;;;;5052091;28;20188;-70
2022/11/28 07:56:38;;;;;;;29.43;16.10;;;4.30;99.90;;;;;;5051976;28;20718;-70
2022/11/28 07:59:04;;;;;;;31.13;17.30;;;4.20;99.90;;;;;;5051643;28;20212;-70
2022/11/28 08:01:32;;;;;;;29.83;15.87;;;4.20;99.90;;;;;;5051956;28;20213;-69
2022/11/28 08:03:58;;;;;;;27.47;15.73;;;4.30;99.90;;;;;;5051644;28;20768;-69
2022/11/28 08:06:29;;;;;;;25.53;14.60;;;4.20;99.90;;;;;;5051754;28;20580;-69
2022/11/28 08:08:56;;;;;;;30.87;15.10;;;4.30;99.90;;;;;;5052137;28;20179;-69
2022/11/28 08:11:23;;;;;;;29.57;16.00;;;4.30;99.90;;;;;;5051476;28;20215;-70
2022/11/28 08:13:50;;;;;;;26.73;14.90;;;4.30;99.90;;;;;;5051682;28;20206;-70
2022/11/28 08:16:18;;;;;;;27.20;15.10;;;4.30;99.90;;;;;;5051408;28;20564;-70
2022/11/28 08:18:45;;;;;;;26.23;15.27;;;4.20;99.90;;;;;;5047931;28;20211;-69
2022/11/28 08:21:16;;;;;;;30.60;15.10;;;4.30;99.90;;;;;;5051210;28;20189;-70
2022/11/28 08:23:44;;;;;;;30.07;17.13;;;4.30;99.90;;;;;;5051904;28;20212;-70
2022/11/28 08:26:12;;;;;;;28.70;15.60;;;4.40;99.90;;;;;;5051256;28;20217;-70
2022/11/28 08:28:38;;;;;;;29.47;16.47;;;4.40;99.90;;;;;;5051493;28;20211;-70
2022/11/28 08:31:09;;;;;;;33.43;17.47;;;4.40;99.90;;;;;;5049691;28;20284;-70
2022/11/28 08:33:34;;;;;;;28.70;16.20;;;4.40;99.90;;;;;;5051382;28;20264;-70
2022/11/28 08:36:04;;;;;;;25.97;14.90;;;4.50;99.90;;;;;;5060692;28;20328;-69
2022/11/28 08:38:29;;;;;;;31.60;16.53;;;4.50;99.90;;;;;;5057143;28;20216;-70
2022/11/28 08:41:06;;;;;;;30.13;16.80;;;4.50;99.90;;;;;;5050569;28;20204;-70
2022/11/28 08:43:37;;;;;;;28.00;14.40;;;4.50;99.90;;;;;;5048483;28;20633;-70
2022/11/28 08:46:03;;;;;;;25.97;15.33;;;4.60;99.90;;;;;;5050956;28;20220;-69
2022/11/28 08:48:29;;;;;;;31.37;15.57;;;4.60;99.90;;;;;;5051575;28;20218;-70
2022/11/28 08:50:55;;;;;;;31.23;16.03;;;4.50;99.90;;;;;;5051133;28;20183;-69
2022/11/28 08:53:21;;;;;;;30.97;15.10;;;4.50;99.90;;;;;;5048698;28;20215;-70
2022/11/28 08:55:47;;;;;;;30.80;15.20;;;4.60;99.90;;;;;;5050500;28;20250;-69
2022/11/28 08:58:13;;;;;;;29.43;16.30;;;4.70;99.90;;;;;;5050745;28;20242;-69
2022/11/28 09:00:41;;;;;;;29.43;16.33;;;4.60;99.90;;;;;;5050428;28;20222;-69
2022/11/28 09:03:08;;;;;;;29.50;15.23;;;4.60;99.90;;;;;;5051136;28;20175;-70
2022/11/28 09:05:34;;;;;;;28.73;16.13;;;4.80;99.90;;;;;;5049357;28;20227;-69
2022/11/28 09:07:59;;;;;;;27.97;16.00;;;4.60;99.90;;;;;;5050421;28;20220;-69
2022/11/28 09:10:25;;;;;;;28.80;15.90;;;4.70;99.90;;;;;;5048058;28;20569;-69
2022/11/28 09:12:51;;;;;;;28.40;15.33;;;4.60;99.90;;;;;;5050767;28;20214;-70
2022/11/28 09:15:17;;;;;;;31.67;15.83;;;4.70;99.90;;;;;;5050368;28;20534;-70
2022/11/28 09:17:44;;;;;;;27.17;15.73;;;4.70;99.90;;;;;;5051245;28;20201;-70
2022/11/28 09:20:10;;;;;;;27.10;15.97;;;4.70;99.90;;;;;;5048653;28;20658;-70
2022/11/28 09:22:36;;;;;;;28.87;16.30;;;4.70;99.90;;;;;;5049322;28;20267;-70
2022/11/28 09:25:01;;;;;;;27.27;15.53;;;4.80;99.90;;;;;;5049842;28;20214;-70
2022/11/28 09:27:27;;;;;;;26.93;15.53;;;4.80;99.90;;;;;;5050511;28;20179;-70
2022/11/28 09:29:52;;;;;;;32.20;16.40;;;4.90;99.90;;;;;;5050440;28;20182;-67
2022/11/28 09:32:18;;;;;;;29.90;15.40;;;4.90;99.90;;;;;;5050272;28;20768;-70
2022/11/28 09:34:44;;;;;;;30.13;15.57;;;4.90;99.90;;;;;;5050259;28;20218;-70
2022/11/28 09:37:09;;;;;;;28.63;15.60;;;4.90;99.90;;;;;;5048729;28;20428;-70
2022/11/28 09:39:35;;;;;;;27.63;15.27;;;4.80;99.90;;;;;;5048503;28;20288;-70
2022/11/28 09:42:14;;;;;;;27.50;15.47;;;4.90;99.90;;;;;;5049265;28;20179;-70
2022/11/28 09:44:50;;;;;;;30.00;15.57;;;4.90;99.90;;;;;;5050833;28;20228;-70
2022/11/28 09:47:26;;;;;;;29.77;15.87;;;4.90;99.90;;;;;;5049792;28;20579;-70
2022/11/28 09:50:00;;;;;;;30.67;16.07;;;4.90;99.90;;;;;;5048163;28;20211;-69
2022/11/28 09:52:32;;;;;;;27.87;15.63;;;5.00;99.90;;;;;;5046072;28;20217;-70
2022/11/28 09:55:04;;;;;;;32.10;16.50;;;5.00;99.90;;;;;;5049793;28;20215;-70
2022/11/28 09:57:45;;;;;;;33.47;16.73;;;4.90;99.90;;;;;;5046800;28;20349;-70
2022/11/28 10:00:36;;;;;;;31.40;16.70;;;5.00;99.90;;;;;;5049608;28;20183;-70
2022/11/28 10:03:36;;;;;;;29.93;16.20;;;5.10;99.90;;;;;;5048119;28;20266;-70
2022/11/28 10:06:13;;;;;;;26.00;15.97;;;5.10;99.90;;;;;;5046792;28;20261;-70
2022/11/28 10:09:00;;;;;;;29.20;16.00;;;5.10;99.90;;;;;;5047181;28;20725;-70
2022/11/28 10:11:36;;;;;;;34.40;16.43;;;5.10;99.90;;;;;;5046979;28;20210;-70
2022/11/28 10:14:38;;;;;;;31.20;15.20;;;5.20;99.90;;;;;;5050812;28;20611;-70
2022/11/28 10:17:23;;;;;;;29.03;15.00;;;5.10;99.90;;;;;;5037505;28;20301;-70
2022/11/28 10:19:56;;;;;;;29.63;15.40;;;5.10;99.90;;;;;;5049648;28;20271;-70
2022/11/28 10:22:32;;;;;;;28.43;15.63;;;5.20;99.90;;;;;;5055179;28;20790;-70
2022/11/28 10:25:10;;;;;;;34.60;16.07;;;5.20;99.90;;;;;;5053549;28;20293;-70
2022/11/28 10:27:35;;;;;;;31.80;15.57;;;5.30;99.90;;;;;;5050402;28;20203;-70
2022/11/28 10:30:09;;;;;;;30.40;16.57;;;5.20;99.90;;;;;;5056397;28;20550;-70
2022/11/28 10:32:42;;;;;;;26.43;14.17;;;5.30;99.90;;;;;;5056563;28;20257;-70
2022/11/28 10:35:34;;;;;;;28.77;16.03;;;5.20;99.90;;;;;;5052497;28;20623;-70
2022/11/28 10:38:00;;;;;;;28.73;15.47;;;5.30;99.90;;;;;;5051247;28;20216;-71
2022/11/28 10:40:44;;;;;;;33.13;16.27;;;5.20;99.90;;;;;;5053372;28;20207;-70
2022/11/28 10:43:34;;;;;;;29.73;15.40;;;5.30;99.90;;;;;;5050407;28;20211;-70
2022/11/28 10:46:19;;;;;;;32.33;16.63;;;5.30;99.90;;;;;;5050839;28;20215;-70
2022/11/28 10:49:36;;;;;;;34.53;16.47;;;5.30;99.90;;;;;;5050739;28;20290;-70
2022/11/28 10:52:04;;;;;;;30.17;16.27;;;5.40;99.90;;;;;;4992296;28;20209;-70
2022/11/28 10:54:30;;;;;;;32.23;16.87;;;5.40;99.90;;;;;;4992103;28;20227;-70
2022/11/28 10:57:16;;;;;;;30.17;14.40;;;5.40;99.90;;;;;;5020452;28;20700;-70
2022/11/28 11:00:08;;;;;;;31.73;16.37;;;5.40;99.90;;;;;;5053643;28;20210;-70
2022/11/28 11:02:51;;;;;;;29.53;15.33;;;5.40;99.90;;;;;;5053069;28;20214;-70
2022/11/28 11:05:20;;;;;;;34.80;17.03;;;5.40;99.90;;;;;;5052684;28;20230;-70
2022/11/28 11:07:56;;;;;;;29.63;16.17;;;5.40;99.90;;;;;;5049851;28;20728;-69
2022/11/28 11:10:31;;;;;;;30.77;15.97;;;5.50;99.90;;;;;;5051276;28;20207;-69
2022/11/28 11:12:58;;;;;;;28.10;16.13;;;5.50;99.90;;;;;;5044834;28;20207;-70
2022/11/28 11:15:31;;;;;;;31.70;16.03;;;5.50;99.90;;;;;;5052658;28;20238;-70
2022/11/28 11:17:59;;;;;;;28.37;16.10;;;5.60;99.90;;;;;;5053231;28;20176;-69
2022/11/28 11:20:30;;;;;;;30.27;16.33;;;5.60;99.90;;;;;;5052456;28;20742;-70
2022/11/28 11:22:58;;;;;;;30.83;16.10;;;5.60;99.90;;;;;;5051291;28;20210;-69
2022/11/28 11:25:26;;;;;;;28.97;14.73;;;5.70;99.90;;;;;;5047517;28;20836;-69
2022/11/28 11:28:01;;;;;;;32.17;15.90;;;5.70;99.90;;;;;;5051147;28;20212;-68
2022/11/28 11:30:29;;;;;;;30.60;15.87;;;5.70;99.90;;;;;;5052877;28;20171;-71
2022/11/28 11:32:57;;;;;;;25.73;15.40;;;5.70;99.90;;;;;;5051846;28;20180;-71
2022/11/28 11:35:27;;;;;;;35.67;16.93;;;5.70;99.90;;;;;;5052494;28;20219;-72
2022/11/28 11:38:13;;;;;;;33.83;16.83;;;5.70;99.90;;;;;;5052167;28;20212;-71
2022/11/28 11:40:39;;;;;;;31.17;17.03;;;5.80;99.90;;;;;;5052440;28;20227;-71
2022/11/28 11:43:31;;;;;;;26.73;15.07;;;5.80;99.90;;;;;;5052292;28;20300;-71
2022/11/28 11:46:12;;;;;;;29.17;15.77;;;5.90;99.90;;;;;;5049648;28;20276;-72
2022/11/28 11:48:50;;;;;;;28.77;14.83;;;5.90;99.90;;;;;;5053779;28;20223;-70
2022/11/28 11:51:31;;;;;;;27.50;15.47;;;5.90;99.90;;;;;;5050430;28;20195;-70
2022/11/28 11:54:12;;;;;;;29.53;15.70;;;5.80;99.90;;;;;;5050129;28;20179;-71
2022/11/28 11:56:41;;;;;;;29.90;14.47;;;5.80;99.90;;;;;;5047236;28;20231;-71
2022/11/28 11:59:42;;;;;;;30.57;15.60;;;5.90;99.90;;;;;;5051950;28;20211;-71
2022/11/28 12:02:28;;;;;;;29.03;15.03;;;5.80;99.90;;;;;;5039355;28;20208;-71
2022/11/28 12:05:18;;;;;;;27.13;14.23;;;5.80;99.90;;;;;;5051807;28;20219;-71
2022/11/28 12:08:00;;;;;;;31.10;15.67;;;5.90;99.90;;;;;;5051486;28;20207;-71
2022/11/28 12:10:34;;;;;;;24.27;13.43;;;6.00;99.90;;;;;;5050844;28;20211;-71
2022/11/28 12:13:01;;;;;;;24.37;13.57;;;5.90;99.90;;;;;;5049435;28;20211;-71
2022/11/28 12:15:44;;;;;;;25.13;14.40;;;5.90;99.90;;;;;;5051833;28;20192;-71
2022/11/28 12:18:40;;;;;;;31.83;15.00;;;5.90;99.90;;;;;;5050958;28;20184;-71
2022/11/28 12:21:06;;;;;;;26.10;14.20;;;5.90;99.90;;;;;;5050521;28;20185;-71
2022/11/28 12:23:45;;;;;;;24.73;13.73;;;5.90;99.90;;;;;;5051893;28;20212;-71
2022/11/28 12:26:29;;;;;;;24.97;14.00;;;5.90;99.90;;;;;;5051225;28;20216;-71
2022/11/28 12:29:33;;;;;;;28.53;15.30;;;5.90;99.90;;;;;;5049536;28;20323;-70
2022/11/28 12:32:36;;;;;;;27.40;14.33;;;5.90;99.90;;;;;;5042257;28;20693;-71
2022/11/28 12:35:17;;;;;;;25.97;13.73;;;5.90;99.90;;;;;;5050058;28;20578;-71
2022/11/28 12:38:01;;;;;;;27.20;14.00;;;5.90;99.90;;;;;;5045222;28;20291;-71
2022/11/28 12:40:45;;;;;;;25.33;14.30;;;6.00;99.90;;;;;;5048332;28;20203;-71
2022/11/28 12:43:37;;;;;;;28.73;14.43;;;6.00;99.90;;;;;;5050049;28;20208;-71
2022/11/28 12:46:06;;;;;;;29.43;13.27;;;6.00;99.90;;;;;;5049188;28;20212;-71
2022/11/28 12:48:45;;;;;;;29.43;15.17;;;6.00;99.90;;;;;;5044196;28;20210;-71
2022/11/28 12:51:32;;;;;;;26.90;14.17;;;6.10;99.90;;;;;;5049997;28;20254;-71
2022/11/28 12:54:00;;;;;;;29.83;14.30;;;6.10;99.90;;;;;;5043758;28;20175;-70
2022/11/28 12:56:56;;;;;;;26.83;14.37;;;6.10;99.90;;;;;;5050957;28;20269;-71
2022/11/28 12:59:54;;;;;;;27.17;14.40;;;6.20;99.90;;;;;;5050126;28;20269;-71
2022/11/28 13:02:37;;;;;;;27.20;13.70;;;6.10;99.90;;;;;;5034876;28;20239;-70
2022/11/28 13:05:14;;;;;;;25.27;14.27;;;6.10;99.90;;;;;;5048533;28;20221;-70